Xi'an, China
Current Conditions -  °F | °C
As of 8:00 PM on Monday 20 Oct 2014 (Local Time) from ZLXY Reporting Station
Moderate Fog Moderate Fog  
Wind Chill: 59°   Ceiling: Unl
Heat Index: 59°   Visibility: 0.43mi
Dew Point: 57°   Wind: 4mph
Humidity: 94%   Direction: 30°NNE
Pressure: 30.12"   Gusts: NA
Location:  34.3°N, 108.93°E
Report Text: ZLXY 201200Z 03002MPS 330V100 0700 R05L/1400VP2000DR05R/1200DFG FEW010 SCT030 15/14 Q1020 NOSIG
Loading
Personal Weather Stations






























Interactive Weather Map
Tropical Storm Tracking
New forecast layout! Learn more

10-Day Weather Forecast

Advertisements
Track Severe Weather on mobile